Chimayo, New Mexico
Current Conditions -  °F | °C
As of 3:55 PM on Tuesday 21 Oct 2014 (Local Time) from KLAM Reporting Station
Clear Clear  
Wind Chill: 14°   Ceiling: Unl
Heat Index: 14°   Visibility: 10mi
Dew Point:   Wind: 7mph
Humidity: 60%   Direction: 110°ESE
Pressure: 30.15"   Gusts: NA
Location:  36°N, 105.93°W
Report Text: KLAM 212155Z AUTO 11006KT 10SM CLR 14/07 A3015 RMK AO2 T01440068
Loading
Personal Weather Stations






























Interactive Weather Map
Tropical Storm Tracking
New forecast layout! Learn more

10-Day Weather Forecast

Advertisements
Track Severe Weather on mobile